Time;durP1;ratioP1;P1;durP2;ratioP2;P2;SDS_P1;SDS_P2;PMS_P1;PMS_P2;Temp;Humidity;BMP_temperature;BMP_pressure;BME280_temperature;BME280_humidity;BME280_pressure;Samples;Min_cycle;Max_cycle;Signal;HPM_P1;HPM_P2
2021/01/25 00:02:35;;;;;;;11.80;8.30;;;;;1.80;99154.00;;;;10504988;28;20217;-76
2021/01/25 00:07:37;;;;;;;9.83;8.33;;;;;1.90;99156.00;;;;10542913;28;20239;-76
2021/01/25 00:12:38;;;;;;;9.83;8.40;;;;;1.90;99158.00;;;;10560157;28;20181;-76
2021/01/25 00:17:39;;;;;;;14.97;9.40;;;;;1.90;99158.00;;;;10504508;28;20605;-76
2021/01/25 00:22:41;;;;;;;13.40;9.87;;;;;2.00;99168.00;;;;10542277;28;20238;-76
2021/01/25 00:27:42;;;;;;;17.17;11.43;;;;;2.00;99169.00;;;;10563156;28;20212;-76
2021/01/25 00:32:45;;;;;;;12.87;10.07;;;;;2.00;99168.00;;;;10538274;28;20242;-76
2021/01/25 00:37:46;;;;;;;15.30;10.97;;;;;2.00;99175.00;;;;10519160;28;20188;-76
2021/01/25 00:42:48;;;;;;;19.10;11.63;;;;;2.00;99177.00;;;;10550858;28;20204;-76
2021/01/25 00:47:49;;;;;;;15.80;11.17;;;;;2.00;99180.00;;;;10544280;28;20256;-76
2021/01/25 00:52:51;;;;;;;14.00;11.07;;;;;2.00;99184.00;;;;10554492;28;20192;-76
2021/01/25 00:57:52;;;;;;;17.17;11.83;;;;;2.10;99190.00;;;;10531529;28;20185;-76
2021/01/25 01:02:53;;;;;;;17.57;12.57;;;;;2.10;99195.00;;;;10528348;28;20242;-76
2021/01/25 01:07:55;;;;;;;14.70;10.60;;;;;2.10;99193.00;;;;10551093;28;20204;-76
2021/01/25 01:12:56;;;;;;;16.70;11.07;;;;;2.10;99199.00;;;;10531346;28;20196;-76
2021/01/25 01:17:57;;;;;;;20.50;12.00;;;;;2.10;99201.00;;;;10570298;28;20223;-76
2021/01/25 01:22:59;;;;;;;16.30;11.50;;;;;2.10;99191.00;;;;10553078;28;20199;-76
2021/01/25 01:28:02;;;;;;;16.87;11.73;;;;;2.10;99214.00;;;;10547260;28;20280;-76
2021/01/25 01:33:03;;;;;;;14.90;10.47;;;;;2.00;99217.00;;;;10532546;28;20231;-76
2021/01/25 01:38:05;;;;;;;15.27;10.73;;;;;1.90;99221.00;;;;10567107;28;20183;-76
2021/01/25 01:43:06;;;;;;;15.00;10.57;;;;;1.90;99226.00;;;;10523772;28;20216;-76
2021/01/25 01:48:08;;;;;;;14.83;10.60;;;;;1.90;99226.00;;;;10551482;28;20250;-76
2021/01/25 01:53:10;;;;;;;13.80;10.70;;;;;1.80;99234.00;;;;10568354;28;20214;-76
2021/01/25 01:58:14;;;;;;;12.07;9.30;;;;;1.80;99231.00;;;;10530958;28;20246;-76
2021/01/25 02:03:15;;;;;;;13.33;9.57;;;;;1.80;99237.00;;;;10519759;28;20268;-76
2021/01/25 02:08:19;;;;;;;13.50;10.00;;;;;1.80;99244.00;;;;10547357;28;20243;-76
2021/01/25 02:13:22;;;;;;;13.37;9.53;;;;;1.80;99260.00;;;;10562939;28;20227;-76
2021/01/25 02:18:23;;;;;;;15.97;10.27;;;;;1.80;99267.00;;;;10554476;28;20234;-76
2021/01/25 02:23:36;;;;;;;13.23;9.60;;;;;1.90;99278.00;;;;10544230;28;20298;-76
2021/01/25 02:28:39;;;;;;;15.40;9.93;;;;;1.80;99285.00;;;;10525488;28;20268;-76
2021/01/25 02:33:48;;;;;;;16.47;10.40;;;;;1.80;99278.00;;;;10524387;28;20216;-76
2021/01/25 02:38:51;;;;;;;13.10;9.47;;;;;1.90;99286.00;;;;10510632;28;20548;-76
2021/01/25 02:43:53;;;;;;;13.90;10.43;;;;;1.90;99288.00;;;;10538643;28;20217;-76
2021/01/25 02:48:55;;;;;;;15.87;10.90;;;;;1.90;99309.00;;;;10490454;28;20189;-76
2021/01/25 02:53:57;;;;;;;12.83;9.67;;;;;2.00;99308.00;;;;10581783;28;20234;-76
2021/01/25 02:58:59;;;;;;;14.30;10.07;;;;;1.90;99308.00;;;;10548941;28;20230;-76
2021/01/25 03:04:02;;;;;;;15.33;9.93;;;;;1.90;99311.00;;;;10541498;28;20270;-76
2021/01/25 03:09:04;;;;;;;15.20;9.43;;;;;1.90;99320.00;;;;10535804;28;20271;-76
2021/01/25 03:14:09;;;;;;;12.67;9.93;;;;;1.90;99316.00;;;;10565896;28;20227;-76
2021/01/25 03:19:10;;;;;;;16.93;10.63;;;;;1.90;99321.00;;;;10532924;28;20188;-76
2021/01/25 03:24:12;;;;;;;13.50;10.83;;;;;1.80;99315.00;;;;10473010;28;21079;-76
2021/01/25 03:29:14;;;;;;;13.73;10.43;;;;;1.80;99327.00;;;;10508967;28;20529;-76
2021/01/25 03:34:15;;;;;;;16.83;10.40;;;;;1.80;99334.00;;;;10536439;28;20189;-76
2021/01/25 03:39:16;;;;;;;15.57;11.27;;;;;1.80;99344.00;;;;10522059;28;20181;-76
2021/01/25 03:44:17;;;;;;;17.80;11.40;;;;;1.80;99356.00;;;;10562205;28;20195;-76
2021/01/25 03:49:20;;;;;;;17.33;11.83;;;;;1.80;99363.00;;;;10530424;28;20393;-76
2021/01/25 03:54:21;;;;;;;18.17;11.33;;;;;1.80;99353.00;;;;10564490;28;20180;-76
2021/01/25 03:59:22;;;;;;;16.93;12.57;;;;;1.90;99363.00;;;;10522071;28;20188;-76
2021/01/25 04:04:24;;;;;;;17.27;12.87;;;;;1.90;99376.00;;;;10471969;28;20274;-76
2021/01/25 04:09:25;;;;;;;18.20;13.20;;;;;1.80;99374.00;;;;10566412;28;20196;-76
2021/01/25 04:14:26;;;;;;;17.20;13.20;;;;;1.80;99378.00;;;;10566957;28;20196;-76
2021/01/25 04:19:28;;;;;;;19.30;13.63;;;;;1.80;99392.00;;;;10563283;28;20279;-76
2021/01/25 04:24:29;;;;;;;20.53;13.27;;;;;1.80;99403.00;;;;10545913;28;20609;-76
2021/01/25 04:29:31;;;;;;;17.80;13.00;;;;;1.80;99412.00;;;;10515997;28;20567;-76
2021/01/25 04:34:32;;;;;;;17.77;12.67;;;;;1.80;99417.00;;;;10504136;28;20587;-76
2021/01/25 04:39:33;;;;;;;19.57;12.83;;;;;1.80;99421.00;;;;10533197;28;20192;-76
2021/01/25 04:44:37;;;;;;;20.10;14.03;;;;;1.80;99426.00;;;;10545916;28;20306;-76
2021/01/25 04:49:41;;;;;;;21.37;13.47;;;;;1.80;99440.00;;;;10517081;28;20193;-76
2021/01/25 04:54:48;;;;;;;22.70;14.20;;;;;1.80;99453.00;;;;10563270;28;20535;-76
2021/01/25 04:59:51;;;;;;;23.37;14.73;;;;;1.90;99459.00;;;;10562568;28;20188;-76
2021/01/25 05:04:53;;;;;;;20.57;13.93;;;;;1.90;99464.00;;;;10527536;28;20999;-76
2021/01/25 05:09:54;;;;;;;20.27;14.13;;;;;1.90;99468.00;;;;10546284;28;20530;-76
2021/01/25 05:14:55;;;;;;;21.00;14.90;;;;;1.90;99479.00;;;;10537921;28;20275;-76
2021/01/25 05:19:57;;;;;;;21.50;14.13;;;;;1.90;99475.00;;;;10520016;28;20213;-76
2021/01/25 05:24:58;;;;;;;20.30;14.10;;;;;1.90;99487.00;;;;10502986;28;20672;-76
2021/01/25 05:30:08;;;;;;;20.57;13.57;;;;;1.90;99493.00;;;;10525629;28;20199;-76
2021/01/25 05:35:10;;;;;;;25.60;15.97;;;;;1.90;99500.00;;;;10537312;28;20558;-76
2021/01/25 05:40:16;;;;;;;22.30;14.67;;;;;1.90;99507.00;;;;10587677;28;20188;-76
2021/01/25 05:45:18;;;;;;;26.23;15.27;;;;;1.90;99502.00;;;;10511903;28;20688;-76
2021/01/25 05:50:29;;;;;;;26.00;16.90;;;;;1.90;99510.00;;;;10528528;28;20188;-76
2021/01/25 05:55:31;;;;;;;26.73;17.10;;;;;1.90;99516.00;;;;10514538;28;20190;-76
2021/01/25 06:00:33;;;;;;;23.93;15.10;;;;;1.90;99535.00;;;;10551054;28;20598;-76
2021/01/25 06:05:40;;;;;;;25.27;17.17;;;;;1.90;99527.00;;;;10551109;28;20212;-76
2021/01/25 06:11:05;;;;;;;27.93;18.60;;;;;1.90;99541.00;;;;10586340;28;20198;-76
2021/01/25 06:16:11;;;;;;;25.57;17.23;;;;;2.00;99546.00;;;;10553081;28;20605;-76
2021/01/25 06:21:21;;;;;;;25.07;15.93;;;;;1.90;99562.00;;;;10533658;28;20189;-76
2021/01/25 06:26:25;;;;;;;27.80;18.20;;;;;1.90;99566.00;;;;10535518;28;20266;-76
2021/01/25 06:31:28;;;;;;;28.73;17.33;;;;;1.90;99578.00;;;;10513819;28;20234;-76
2021/01/25 06:36:32;;;;;;;33.77;18.87;;;;;1.90;99581.00;;;;10542663;28;20636;-76
2021/01/25 06:41:39;;;;;;;32.80;20.03;;;;;1.90;99591.00;;;;10491474;28;20193;-76
2021/01/25 06:46:40;;;;;;;29.70;18.00;;;;;2.00;99601.00;;;;10526659;28;20208;-76
2021/01/25 06:51:43;;;;;;;30.10;19.43;;;;;2.00;99617.00;;;;10541125;28;20181;-76
2021/01/25 06:56:45;;;;;;;31.40;19.63;;;;;1.90;99629.00;;;;10544273;28;20196;-76
2021/01/25 07:01:52;;;;;;;35.27;21.23;;;;;1.90;99647.00;;;;10541960;28;20237;-76
2021/01/25 07:06:55;;;;;;;29.33;19.33;;;;;1.90;99659.00;;;;10516612;28;20204;-76
2021/01/25 07:11:58;;;;;;;30.63;19.67;;;;;1.90;99674.00;;;;10549711;28;20181;-76
2021/01/25 07:17:03;;;;;;;33.10;20.33;;;;;1.90;99682.00;;;;10565318;28;20237;-76
2021/01/25 07:22:07;;;;;;;37.43;22.53;;;;;1.80;99688.00;;;;10582784;28;20635;-76
2021/01/25 07:27:08;;;;;;;43.60;22.43;;;;;1.80;99702.00;;;;10548246;28;20222;-76
2021/01/25 07:32:12;;;;;;;61.27;26.60;;;;;1.80;99717.00;;;;10552507;28;20185;-76
2021/01/25 07:37:14;;;;;;;62.27;27.53;;;;;1.80;99727.00;;;;10510398;28;20570;-76
2021/01/25 07:42:16;;;;;;;67.63;29.63;;;;;1.70;99741.00;;;;10537315;28;20197;-76
2021/01/25 07:47:22;;;;;;;78.33;30.43;;;;;1.70;99762.00;;;;10560830;27;20219;-76
2021/01/25 07:52:23;;;;;;;77.60;31.10;;;;;1.70;99769.00;;;;10522048;28;20189;-76
2021/01/25 07:57:25;;;;;;;69.40;29.70;;;;;1.70;99788.00;;;;10528781;28;20188;-76
2021/01/25 08:02:31;;;;;;;70.10;30.20;;;;;1.70;99798.00;;;;10563244;28;20206;-76
2021/01/25 08:07:33;;;;;;;72.60;31.27;;;;;1.70;99807.00;;;;10527129;28;20201;-76
2021/01/25 08:12:34;;;;;;;59.97;26.63;;;;;1.70;99827.00;;;;10525321;27;20219;-75
2021/01/25 08:17:41;;;;;;;61.53;27.33;;;;;1.80;99838.00;;;;10568241;28;20663;-76
2021/01/25 08:23:07;;;;;;;67.23;30.50;;;;;1.90;99840.00;;;;10536516;28;20714;-76
2021/01/25 08:28:11;;;;;;;53.97;27.13;;;;;1.90;99856.00;;;;10538560;28;20212;-76
2021/01/25 08:33:24;;;;;;;56.03;27.37;;;;;1.90;99865.00;;;;10542182;28;20219;-76
2021/01/25 08:38:32;;;;;;;55.93;27.90;;;;;2.00;99878.00;;;;10527976;28;20524;-76
2021/01/25 08:43:34;;;;;;;60.43;29.07;;;;;2.00;99884.00;;;;10546023;28;20250;-76
2021/01/25 08:48:36;;;;;;;61.53;30.13;;;;;2.10;99893.00;;;;10520408;28;20196;-76
2021/01/25 08:53:38;;;;;;;65.90;31.30;;;;;2.20;99914.00;;;;10540844;28;20189;-76
2021/01/25 08:58:39;;;;;;;60.53;29.43;;;;;2.20;99915.00;;;;10519748;28;20259;-76
2021/01/25 09:03:41;;;;;;;55.03;28.40;;;;;2.20;99924.00;;;;10529869;27;20635;-76
2021/01/25 09:08:42;;;;;;;57.00;27.83;;;;;2.50;99930.00;;;;10565929;27;20200;-76
2021/01/25 09:13:44;;;;;;;51.43;26.67;;;;;2.70;99942.00;;;;10524424;28;20222;-76
2021/01/25 09:18:45;;;;;;;47.03;26.57;;;;;2.50;99954.00;;;;10522596;28;20729;-76
2021/01/25 09:23:47;;;;;;;48.30;25.17;;;;;2.50;99966.00;;;;10513694;27;20199;-76
2021/01/25 09:28:48;;;;;;;46.03;24.40;;;;;2.70;99972.00;;;;10548951;27;20564;-76
2021/01/25 09:33:49;;;;;;;52.73;28.17;;;;;2.60;99990.00;;;;10500574;28;20713;-77
2021/01/25 09:38:51;;;;;;;45.07;25.07;;;;;2.50;99990.00;;;;10527125;27;20195;-77
2021/01/25 09:43:54;;;;;;;49.77;27.67;;;;;2.70;100010.00;;;;10537662;28;20211;-76
2021/01/25 09:48:55;;;;;;;49.07;27.43;;;;;3.20;100016.00;;;;10572066;27;20201;-76
2021/01/25 09:53:57;;;;;;;44.00;25.83;;;;;3.20;100027.00;;;;10546487;28;20258;-76
2021/01/25 09:58:58;;;;;;;41.83;25.10;;;;;3.40;100041.00;;;;10521068;28;20235;-76
2021/01/25 10:04:02;;;;;;;43.83;25.53;;;;;3.40;100064.00;;;;10526849;28;20200;-75
2021/01/25 10:09:04;;;;;;;34.83;20.47;;;;;3.50;100083.00;;;;10496719;28;20254;-75
2021/01/25 10:14:08;;;;;;;38.73;23.67;;;;;3.40;100078.00;;;;10527752;28;20184;-75
2021/01/25 10:19:09;;;;;;;34.30;20.90;;;;;3.10;100094.00;;;;10540585;28;20267;-75
2021/01/25 10:24:11;;;;;;;33.00;22.43;;;;;3.30;100108.00;;;;10504690;28;20185;-75
2021/01/25 10:29:12;;;;;;;32.30;21.00;;;;;3.50;100119.00;;;;10578745;28;20192;-75
2021/01/25 10:34:14;;;;;;;35.50;21.63;;;;;3.80;100128.00;;;;10501689;28;20261;-75
2021/01/25 10:39:15;;;;;;;31.03;19.83;;;;;4.20;100129.00;;;;10515671;28;20203;-75
2021/01/25 10:44:17;;;;;;;32.20;20.27;;;;;4.10;100142.00;;;;10528014;27;20216;-75
2021/01/25 10:49:19;;;;;;;31.30;19.97;;;;;3.80;100160.00;;;;10516278;28;20196;-74
2021/01/25 10:54:24;;;;;;;29.80;20.40;;;;;4.20;100158.00;;;;10501287;28;20212;-75
2021/01/25 10:59:26;;;;;;;32.30;21.97;;;;;4.40;100162.00;;;;10547238;28;20268;-75
2021/01/25 11:04:27;;;;;;;28.80;20.27;;;;;4.70;100169.00;;;;10535639;28;20287;-75
2021/01/25 11:09:29;;;;;;;36.50;21.97;;;;;5.70;100181.00;;;;10546946;28;20685;-75
2021/01/25 11:14:33;;;;;;;29.97;19.93;;;;;6.00;100174.00;;;;10505943;28;20197;-75
2021/01/25 11:19:35;;;;;;;29.73;21.23;;;;;7.10;100181.00;;;;10555902;28;20185;-75
2021/01/25 11:24:37;;;;;;;28.97;20.37;;;;;7.60;100189.00;;;;10527437;28;20236;-75
2021/01/25 11:29:38;;;;;;;29.87;20.10;;;;;6.20;100201.00;;;;10552945;28;20238;-75
2021/01/25 11:34:40;;;;;;;29.97;21.53;;;;;5.20;100196.00;;;;10517678;28;20181;-76
2021/01/25 11:39:42;;;;;;;32.57;21.73;;;;;5.90;100195.00;;;;10546210;28;20193;-75
2021/01/25 11:44:44;;;;;;;23.90;15.93;;;;;6.20;100215.00;;;;10527486;27;20287;-75
2021/01/25 11:49:45;;;;;;;24.40;17.93;;;;;6.40;100206.00;;;;10563031;28;20189;-75
2021/01/25 11:54:46;;;;;;;24.03;16.90;;;;;6.70;100207.00;;;;10514197;28;20207;-75
2021/01/25 11:59:47;;;;;;;26.10;17.00;;;;;6.60;100215.00;;;;10565509;28;20196;-75
2021/01/25 12:04:50;;;;;;;22.87;17.00;;;;;6.70;100224.00;;;;10527170;28;20212;-75
2021/01/25 12:09:51;;;;;;;26.03;18.30;;;;;6.90;100225.00;;;;10523337;28;20193;-75
2021/01/25 12:14:53;;;;;;;22.40;15.67;;;;;7.10;100227.00;;;;10570320;27;20181;-75
2021/01/25 12:19:54;;;;;;;21.47;14.57;;;;;7.10;100234.00;;;;10530067;28;20302;-75
2021/01/25 12:24:55;;;;;;;22.43;14.87;;;;;7.00;100247.00;;;;10551005;28;20730;-75
2021/01/25 12:29:57;;;;;;;22.27;14.00;;;;;7.00;100237.00;;;;10552974;28;20640;-75
2021/01/25 12:34:58;;;;;;;22.00;15.53;;;;;7.20;100246.00;;;;10566992;28;20596;-75
2021/01/25 12:40:00;;;;;;;20.63;14.53;;;;;7.30;100253.00;;;;10565016;28;20614;-75
2021/01/25 12:45:05;;;;;;;23.00;15.13;;;;;6.80;100252.00;;;;10559219;28;20204;-75
2021/01/25 12:50:15;;;;;;;24.00;15.67;;;;;7.10;100262.00;;;;10566926;28;20242;-75
2021/01/25 12:55:16;;;;;;;25.00;17.00;;;;;7.10;100259.00;;;;10533954;28;20192;-75
2021/01/25 13:00:24;;;;;;;31.17;18.33;;;;;7.20;100260.00;;;;10543958;28;20644;-75
2021/01/25 13:05:25;;;;;;;27.33;16.00;;;;;7.00;100268.00;;;;10579447;27;20222;-75
2021/01/25 13:10:27;;;;;;;26.13;16.70;;;;;7.10;100272.00;;;;10554122;28;20219;-75
2021/01/25 13:15:29;;;;;;;25.03;17.17;;;;;7.10;100272.00;;;;10556910;27;20586;-75
2021/01/25 13:20:32;;;;;;;25.37;16.77;;;;;7.20;100272.00;;;;10545383;28;20185;-76
2021/01/25 13:25:33;;;;;;;24.90;14.50;;;;;7.30;100278.00;;;;10566385;28;20224;-75
2021/01/25 13:30:35;;;;;;;24.43;16.37;;;;;7.30;100285.00;;;;10531561;28;20192;-75
2021/01/25 13:35:37;;;;;;;21.60;15.40;;;;;7.20;100279.00;;;;10525015;27;20199;-75
2021/01/25 13:40:38;;;;;;;18.27;13.20;;;;;7.30;100288.00;;;;10538695;27;20721;-75
2021/01/25 13:45:40;;;;;;;19.20;12.27;;;;;7.40;100287.00;;;;10518888;28;20274;-75
2021/01/25 13:50:43;;;;;;;16.27;11.73;;;;;7.40;100291.00;;;;10533325;28;20224;-75
2021/01/25 13:55:45;;;;;;;14.70;11.37;;;;;7.20;100302.00;;;;10509347;28;20193;-76
2021/01/25 14:00:47;;;;;;;14.03;9.67;;;;;7.20;100300.00;;;;10562461;28;20245;-75
2021/01/25 14:05:49;;;;;;;13.63;9.33;;;;;7.50;100305.00;;;;10573500;27;20565;-75
2021/01/25 14:10:50;;;;;;;11.97;7.80;;;;;7.50;100319.00;;;;10560789;27;20724;-76
2021/01/25 14:15:51;;;;;;;13.30;9.17;;;;;6.80;100330.00;;;;10549586;27;20254;-76
2021/01/25 14:20:53;;;;;;;12.47;8.53;;;;;6.30;100324.00;;;;10491812;28;20219;-76
2021/01/25 14:25:54;;;;;;;13.30;9.93;;;;;6.00;100335.00;;;;10522101;27;20719;-76
2021/01/25 14:30:56;;;;;;;8.50;6.33;;;;;5.40;100349.00;;;;10490237;28;20197;-76
2021/01/25 14:35:58;;;;;;;8.93;7.03;;;;;4.30;100371.00;;;;10526936;28;20185;-76
2021/01/25 14:40:59;;;;;;;10.70;8.63;;;;;3.60;100380.00;;;;10490072;28;20232;-76
2021/01/25 14:46:03;;;;;;;13.40;10.33;;;;;3.50;100381.00;;;;10494784;28;20258;-75
2021/01/25 14:51:05;;;;;;;9.63;7.37;;;;;3.60;100391.00;;;;10567100;27;20226;-75
2021/01/25 14:56:07;;;;;;;11.60;8.60;;;;;3.70;100394.00;;;;10514608;28;20185;-75
2021/01/25 15:01:08;;;;;;;11.80;8.57;;;;;4.10;100406.00;;;;10535436;28;20637;-75
2021/01/25 15:06:09;;;;;;;12.97;9.10;;;;;4.20;100409.00;;;;10550241;27;20251;-75
2021/01/25 15:11:11;;;;;;;12.67;9.10;;;;;4.10;100414.00;;;;10529681;27;20198;-75
2021/01/25 15:16:12;;;;;;;15.83;10.37;;;;;4.10;100419.00;;;;10530674;28;20272;-76
2021/01/25 15:21:14;;;;;;;13.13;7.60;;;;;4.00;100425.00;;;;10558610;28;20270;-75
2021/01/25 15:26:15;;;;;;;8.67;5.53;;;;;4.00;100433.00;;;;10541784;28;20218;-75
2021/01/25 15:31:16;;;;;;;11.63;5.40;;;;;4.00;100434.00;;;;10504243;28;20192;-75
2021/01/25 15:36:18;;;;;;;12.10;7.33;;;;;4.00;100436.00;;;;10515308;28;20275;-75
2021/01/25 15:41:19;;;;;;;11.20;7.90;;;;;3.80;100445.00;;;;10549263;27;20188;-75
2021/01/25 15:46:24;;;;;;;10.57;7.40;;;;;3.70;100449.00;;;;10482487;28;20213;-75
2021/01/25 15:51:25;;;;;;;11.20;7.23;;;;;3.60;100448.00;;;;10536413;27;20335;-75
2021/01/25 15:56:27;;;;;;;32.07;13.57;;;;;3.50;100466.00;;;;10547357;27;20271;-76
2021/01/25 16:01:28;;;;;;;10.67;8.30;;;;;3.50;100465.00;;;;10509479;28;20312;-75
2021/01/25 16:06:29;;;;;;;11.97;8.90;;;;;3.30;100476.00;;;;10555296;27;20259;-75
2021/01/25 16:11:31;;;;;;;8.40;5.97;;;;;3.20;100471.00;;;;10565072;27;20209;-75
2021/01/25 16:16:32;;;;;;;7.93;5.43;;;;;3.10;100478.00;;;;10536742;28;20208;-75
2021/01/25 16:21:34;;;;;;;7.80;5.73;;;;;3.10;100485.00;;;;10554757;28;20200;-75
2021/01/25 16:26:35;;;;;;;6.50;5.43;;;;;3.10;100489.00;;;;10537315;28;20200;-75
2021/01/25 16:31:37;;;;;;;13.30;6.17;;;;;3.00;100496.00;;;;10510300;28;20191;-75
2021/01/25 16:36:38;;;;;;;12.63;10.87;;;;;3.00;100484.00;;;;10515947;28;20195;-75
2021/01/25 16:41:39;;;;;;;11.43;9.17;;;;;3.00;100483.00;;;;10513455;28;20246;-75
2021/01/25 16:46:41;;;;;;;7.57;4.87;;;;;2.90;100490.00;;;;10568489;28;20242;-75
2021/01/25 16:51:42;;;;;;;12.30;4.43;;;;;2.90;100502.00;;;;10534160;28;20199;-75
2021/01/25 16:56:43;;;;;;;5.77;3.73;;;;;2.90;100516.00;;;;10540987;28;20599;-75
2021/01/25 17:01:45;;;;;;;12.37;4.17;;;;;2.90;100524.00;;;;10574772;28;20674;-75
2021/01/25 17:06:46;;;;;;;8.27;4.07;;;;;2.80;100534.00;;;;10554540;28;20231;-76
2021/01/25 17:11:48;;;;;;;6.33;3.10;;;;;2.80;100536.00;;;;10533826;28;20211;-75
2021/01/25 17:16:49;;;;;;;5.87;2.90;;;;;2.90;100546.00;;;;10560877;28;20200;-75
2021/01/25 17:21:55;;;;;;;5.00;2.57;;;;;2.90;100548.00;;;;10548101;27;20187;-75
2021/01/25 17:26:58;;;;;;;6.03;2.90;;;;;2.80;100557.00;;;;10569512;27;20286;-75
2021/01/25 17:32:03;;;;;;;6.23;3.07;;;;;2.80;100553.00;;;;10536409;27;20219;-76
2021/01/25 17:37:06;;;;;;;6.60;3.43;;;;;2.70;100562.00;;;;10570669;27;20244;-75
2021/01/25 17:42:07;;;;;;;7.70;3.43;;;;;2.70;100567.00;;;;10554520;27;20203;-76
2021/01/25 17:47:09;;;;;;;10.57;3.10;;;;;2.70;100592.00;;;;10588466;27;20294;-75
2021/01/25 17:52:11;;;;;;;8.60;4.17;;;;;2.60;100590.00;;;;10618065;27;20191;-75
2021/01/25 17:57:12;;;;;;;6.60;3.70;;;;;2.60;100596.00;;;;10573326;28;20208;-75
2021/01/25 18:02:14;;;;;;;6.33;4.03;;;;;2.60;100599.00;;;;10588902;27;20608;-75
2021/01/25 18:07:15;;;;;;;9.63;4.27;;;;;2.60;100604.00;;;;10560627;27;20211;-74
2021/01/25 18:12:16;;;;;;;9.03;4.20;;;;;2.70;100603.00;;;;10582479;27;20259;-75
2021/01/25 18:17:18;;;;;;;6.00;4.50;;;;;2.60;100614.00;;;;10607741;27;20209;-74
2021/01/25 18:22:20;;;;;;;10.13;4.03;;;;;2.50;100616.00;;;;10531488;27;20674;-74
2021/01/25 18:27:21;;;;;;;13.83;4.80;;;;;2.40;100624.00;;;;10529200;28;20808;-74
2021/01/25 18:32:24;;;;;;;10.83;5.23;;;;;2.40;100628.00;;;;10537892;27;20192;-73
2021/01/25 18:37:26;;;;;;;7.30;5.10;;;;;2.40;100635.00;;;;10553776;27;20197;-73
2021/01/25 18:42:28;;;;;;;10.87;5.90;;;;;2.40;100633.00;;;;10554309;27;20222;-74
2021/01/25 18:47:30;;;;;;;15.37;6.40;;;;;2.30;100637.00;;;;10541238;27;20545;-75
2021/01/25 18:52:32;;;;;;;11.93;6.77;;;;;2.30;100648.00;;;;10539154;27;20204;-74
2021/01/25 18:57:34;;;;;;;15.53;6.87;;;;;2.30;100631.00;;;;10541187;27;20282;-74
2021/01/25 19:02:35;;;;;;;12.93;6.87;;;;;2.20;100639.00;;;;10539166;27;20508;-74
2021/01/25 19:07:39;;;;;;;14.73;9.00;;;;;2.20;100639.00;;;;10558616;27;20215;-73
2021/01/25 19:12:42;;;;;;;14.83;8.27;;;;;2.10;100651.00;;;;10577851;27;20283;-74
2021/01/25 19:17:44;;;;;;;16.93;10.20;;;;;2.10;100657.00;;;;10554612;27;20197;-74
2021/01/25 19:22:48;;;;;;;16.53;9.30;;;;;2.10;100647.00;;;;10532817;27;20203;-74
2021/01/25 19:27:50;;;;;;;12.93;8.30;;;;;2.30;100661.00;;;;10563803;27;20249;-74
2021/01/25 19:32:53;;;;;;;15.40;8.87;;;;;2.50;100666.00;;;;10544341;27;20193;-74
2021/01/25 19:37:55;;;;;;;15.30;8.70;;;;;2.60;100664.00;;;;10561614;28;20544;-74
2021/01/25 19:42:56;;;;;;;13.60;6.53;;;;;2.70;100651.00;;;;10546222;28;20246;-75
2021/01/25 19:47:59;;;;;;;9.50;7.30;;;;;2.60;100649.00;;;;10541344;28;20239;-73
2021/01/25 19:53:03;;;;;;;12.00;6.23;;;;;2.60;100658.00;;;;10576670;27;20201;-75
2021/01/25 19:58:04;;;;;;;11.53;6.43;;;;;2.70;100670.00;;;;10527674;28;20204;-75
2021/01/25 20:03:08;;;;;;;11.50;6.70;;;;;2.80;100674.00;;;;10558805;27;20248;-75
2021/01/25 20:08:10;;;;;;;16.83;11.33;;;;;2.90;100675.00;;;;10520166;28;20189;-74
2021/01/25 20:13:12;;;;;;;13.87;7.40;;;;;2.90;100673.00;;;;10570234;27;20639;-75
2021/01/25 20:18:18;;;;;;;12.77;10.33;;;;;3.00;100673.00;;;;10547744;28;20192;-74
2021/01/25 20:23:26;;;;;;;11.40;7.73;;;;;3.00;100688.00;;;;10546610;28;20201;-74
2021/01/25 20:28:30;;;;;;;13.30;7.13;;;;;3.10;100694.00;;;;10529006;28;20576;-74
2021/01/25 20:33:36;;;;;;;11.30;7.03;;;;;3.10;100705.00;;;;10541572;28;20518;-74
2021/01/25 20:38:43;;;;;;;11.57;6.53;;;;;3.10;100711.00;;;;10551694;28;20192;-74
2021/01/25 20:43:45;;;;;;;13.10;7.53;;;;;3.10;100714.00;;;;10552988;28;20742;-75
2021/01/25 20:48:47;;;;;;;21.57;11.93;;;;;3.10;100720.00;;;;10517849;28;20208;-75
2021/01/25 20:53:49;;;;;;;9.97;6.50;;;;;3.20;100719.00;;;;10513060;28;20223;-75
2021/01/25 20:58:50;;;;;;;14.27;6.87;;;;;3.20;100727.00;;;;10552263;28;20242;-74
2021/01/25 21:03:52;;;;;;;13.63;7.13;;;;;3.20;100721.00;;;;10585754;27;20199;-74
2021/01/25 21:08:53;;;;;;;15.23;6.40;;;;;3.20;100732.00;;;;10527213;28;20230;-75
2021/01/25 21:13:54;;;;;;;12.63;7.40;;;;;3.20;100727.00;;;;10532924;28;20228;-74
2021/01/25 21:18:56;;;;;;;16.30;6.83;;;;;3.10;100729.00;;;;10546807;28;20657;-74
2021/01/25 21:23:58;;;;;;;13.63;7.17;;;;;3.10;100732.00;;;;10523119;27;20223;-74
2021/01/25 21:28:59;;;;;;;15.67;7.07;;;;;3.10;100739.00;;;;10512984;27;20204;-74
2021/01/25 21:34:03;;;;;;;14.60;7.40;;;;;3.20;100752.00;;;;10537576;28;20202;-74
2021/01/25 21:39:04;;;;;;;16.33;7.63;;;;;3.20;100739.00;;;;10528515;27;20188;-74
2021/01/25 21:44:06;;;;;;;18.00;7.57;;;;;3.20;100752.00;;;;10539875;27;20300;-74
2021/01/25 21:49:07;;;;;;;19.57;7.73;;;;;3.20;100762.00;;;;10532243;28;20235;-75
2021/01/25 21:54:09;;;;;;;12.70;7.00;;;;;3.20;100765.00;;;;10543143;27;20219;-74
2021/01/25 21:59:11;;;;;;;13.47;6.70;;;;;3.20;100770.00;;;;10520069;27;20199;-74
2021/01/25 22:04:12;;;;;;;15.17;7.40;;;;;3.20;100772.00;;;;10538041;27;20733;-74
2021/01/25 22:09:14;;;;;;;14.40;6.77;;;;;3.20;100772.00;;;;10536387;28;20204;-75
2021/01/25 22:14:16;;;;;;;15.03;6.57;;;;;3.20;100775.00;;;;10523091;28;20655;-74
2021/01/25 22:19:17;;;;;;;14.17;7.10;;;;;3.30;100779.00;;;;10564543;28;20192;-74
2021/01/25 22:24:19;;;;;;;11.73;6.50;;;;;3.40;100776.00;;;;10559389;28;20193;-75
2021/01/25 22:29:20;;;;;;;20.00;6.27;;;;;3.40;100783.00;;;;10524788;27;20674;-74
2021/01/25 22:34:21;;;;;;;13.53;5.40;;;;;3.40;100793.00;;;;10540674;27;20274;-74
2021/01/25 22:39:23;;;;;;;10.73;5.73;;;;;3.40;100795.00;;;;10543035;27;20215;-74
2021/01/25 22:44:24;;;;;;;10.10;5.63;;;;;3.40;100792.00;;;;10543678;28;20236;-75
2021/01/25 22:49:27;;;;;;;7.10;5.07;;;;;3.40;100801.00;;;;10525858;28;20241;-74
2021/01/25 22:54:28;;;;;;;15.20;5.50;;;;;3.50;100799.00;;;;10525549;28;20582;-74
2021/01/25 22:59:31;;;;;;;9.03;5.07;;;;;3.50;100801.00;;;;10545398;27;20506;-74
2021/01/25 23:04:32;;;;;;;10.80;6.00;;;;;3.50;100802.00;;;;10516790;28;20220;-74
2021/01/25 23:09:34;;;;;;;14.30;5.07;;;;;3.60;100805.00;;;;10538123;28;20244;-74
2021/01/25 23:14:36;;;;;;;17.60;5.67;;;;;3.60;100809.00;;;;10529746;28;20187;-74
2021/01/25 23:19:37;;;;;;;13.97;5.03;;;;;3.60;100818.00;;;;10522307;28;21815;-74
2021/01/25 23:24:38;;;;;;;5.67;3.97;;;;;3.60;100819.00;;;;10537389;28;20185;-74
2021/01/25 23:29:40;;;;;;;14.73;5.07;;;;;3.60;100820.00;;;;10509258;28;20606;-75
2021/01/25 23:34:41;;;;;;;12.03;4.90;;;;;3.60;100832.00;;;;10521993;28;20610;-74
2021/01/25 23:39:43;;;;;;;7.37;4.13;;;;;3.70;100825.00;;;;10506402;28;20685;-75
2021/01/25 23:44:44;;;;;;;17.07;4.97;;;;;3.70;100818.00;;;;10536884;28;20239;-75
2021/01/25 23:49:45;;;;;;;9.27;4.03;;;;;3.70;100828.00;;;;10547121;28;20288;-75
2021/01/25 23:54:47;;;;;;;10.17;3.47;;;;;3.70;100826.00;;;;10578478;27;20226;-75
2021/01/25 23:59:48;;;;;;;17.87;4.40;;;;;3.70;100829.00;;;;10579289;28;20184;-75
